Huslia Airport Huslia US
ICAO: PAHL
IATA:
Category: Medium
Scheduled Services:

Elevation: 220 ft
TransAlt. 18000 ft.

Airport Communications:
AWOS 3:135.75
ANCHORAGE CNTR:127
CTAF:122.8
FAIRBANKS RDO:122.4

PAHL Zoom In..

If you have problems with the map follow the link
https://www.worldairports.se/pages/airport.php?
ICAO=PAHL

Runways:

(A) RW 03 length 4000 ft width 75 ft
---- / hdg 32

(B) RW 21 length 4000 ft width 75 ft
---- / hdg 212

Location; PAHL
Day. 18 / Time. 01.56 Zulu
* Altimeter: 29.60
* Temperature: -09° c. -15.8°f.
* Wind from: 070° Speed 15 kn with Gusts up to 20 kn.
Dewpoint: -11° c.
Visibility: 1 m.
Clouds: Overcast 1400 ft.
Conditions: Light Snow.Conditions: Mist.

PAHL 180156Z AUTO 07015G20KT 1 1/4SM -SN BR OVC014 M09/M11 A2960 RMK AO2 SLP035 P0000 T10941111 FZRANO


Wind From 070°
Speed 15 kn.

 
 
jpsmedia.com for Web Design worldairports.se 2019   terms of use